Hovedside
METAR-TAF:

METAR-TAF

Lufthavner :

Athen, Hellas

Eleftherios Venizelos internasjonale lufthavn

breddegrad: 37-56N, lengdegrad: 023-56E, høyde over havet: 94 m

Gjeldene værobservasjon

Denne rapporten ble laget for 39 minutter siden, klokken 20:50 UTC
Vind 13 kt fra Nordvest
Temperatur 9°C
Luftfuktighet 23%
Trykk 1016 hPa
Sikt 10 km eller mer
Få skyer i en høyde av 2500 ft

METAR: LGAV 182050Z 31013KT 9999 FEW025 09/M11 Q1016 NOSIG

Tid: 23:29 (21:29 UTC)

Varsel

Denne rapporten ble laget for 4 timer og 29 minutter siden, klokken 17:00 UTC
Varsel gyldig fra 18. klokken 18 UTC til 19. klokken 18 UTC
Vind 10 kt fra Vest-nordvest
Sikt 10 km eller mer
Få skyer i en høyde av 2500 ft
Blir
fra 19. klokken 10 UTC til 19. klokken 12 UTC
Vind 10 kt fra Sør-sørvest

TAF: LGAV 181700Z 1818/1918 30010KT 9999 FEW025 BECMG 1910/1912 21010KT

Værobservasjoner og værvarsel for over 4000 flyplasser (METAR- og TAF-rapporter).

Tilgjengelige stasjoner er representert av de røde og gule prikkene på kartet.

Hold musepekeren over prikken for å se navnet på stasjonen.

Klikk så for å se værobservasjoner og -varsler.

For å forandre kartet kan du klikke på den grønne knappen med svart kryss for å zoome inn, på den grønne knappen med strek for å zoome ut, eller på de grønne pilene for å se tilstøtende kart.


METAR-TAF: